createdAt,value
2019-06-07T00:00:33.116Z,1.8
2019-06-07T00:02:18.758Z,1.3
2019-06-07T00:04:16.554Z,1.2
2019-06-07T00:06:23.735Z,1.5
2019-06-07T00:08:24.654Z,1.7
2019-06-07T00:10:34.856Z,1
2019-06-07T00:12:17.636Z,1.2
2019-06-07T00:14:21.062Z,2
2019-06-07T00:16:22.102Z,1.3
2019-06-07T00:18:23.693Z,1.3
2019-06-07T00:20:23.215Z,1.4
2019-06-07T00:22:29.481Z,1.4
2019-06-07T00:24:19.251Z,1.6
2019-06-07T00:26:21.096Z,1.7
2019-06-07T00:28:18.822Z,1.7
2019-06-07T00:30:35.785Z,1.9
2019-06-07T00:32:21.891Z,1.4
2019-06-07T00:34:19.840Z,1.7
2019-06-07T00:36:20.671Z,1.5
2019-06-07T00:38:20.359Z,0.8
2019-06-07T00:40:27.290Z,1.1
2019-06-07T00:42:20.620Z,1.4
2019-06-07T00:44:21.410Z,1.1
2019-06-07T00:46:20.829Z,1.2
2019-06-07T00:48:27.271Z,1
2019-06-07T00:50:20.975Z,1.4
2019-06-07T00:52:58.421Z,0.9
2019-06-07T00:54:19.820Z,1.3
2019-06-07T00:56:20.190Z,1.5
2019-06-07T00:58:21.733Z,1.3
2019-06-07T01:00:21.872Z,1.3
2019-06-07T01:02:19.130Z,1.4
2019-06-07T01:04:19.293Z,1.6
2019-06-07T01:06:20.043Z,1.7
2019-06-07T01:08:21.544Z,1.7
2019-06-07T01:10:35.153Z,1.6
2019-06-07T01:12:18.507Z,2.1
2019-06-07T01:14:19.287Z,2
2019-06-07T01:16:22.151Z,1.7
2019-06-07T01:18:38.117Z,2
2019-06-07T01:20:19.840Z,1.6
2019-06-07T01:22:19.735Z,1.8
2019-06-07T01:24:17.580Z,1.9
2019-06-07T01:26:21.893Z,1.7
2019-06-07T01:28:21.273Z,1.8
2019-06-07T01:30:18.756Z,1.7
2019-06-07T01:32:19.226Z,2.2
2019-06-07T01:34:18.520Z,1.4
2019-06-07T01:36:19.981Z,1.9
2019-06-07T01:38:21.841Z,1.4
2019-06-07T01:40:20.616Z,1.8
2019-06-07T01:42:19.890Z,1.5
2019-06-07T01:44:22.223Z,1.2
2019-06-07T01:46:16.473Z,1.8
2019-06-07T01:48:21.536Z,1.8
2019-06-07T01:50:21.619Z,1.9
2019-06-07T01:52:19.400Z,1.7
2019-06-07T01:56:18.825Z,1.4
2019-06-07T01:58:19.858Z,1.3
2019-06-07T02:00:21.414Z,2
2019-06-07T02:02:17.850Z,1.4
2019-06-07T02:04:19.974Z,1.4
2019-06-07T02:06:18.499Z,2
2019-06-07T02:08:20.032Z,1.5
2019-06-07T02:10:19.639Z,2
2019-06-07T02:12:27.825Z,1.4
2019-06-07T02:14:19.235Z,1.4
2019-06-07T02:16:19.308Z,1.3
2019-06-07T02:18:21.708Z,1.8
2019-06-07T02:20:17.981Z,1.1
2019-06-07T02:22:17.688Z,1.4
2019-06-07T02:24:22.140Z,0.8
2019-06-07T02:26:18.747Z,1.2
2019-06-07T02:28:42.884Z,1.3
2019-06-07T02:30:40.023Z,1.5
2019-06-07T02:32:17.960Z,1.5
2019-06-07T02:34:17.714Z,1.5
2019-06-07T02:36:19.515Z,1.3
2019-06-07T02:38:19.027Z,1.1
2019-06-07T02:40:17.643Z,1.1
2019-06-07T02:42:18.429Z,1.2
2019-06-07T02:44:17.095Z,1
2019-06-07T02:46:26.155Z,1.3
2019-06-07T02:48:17.540Z,1.3
2019-06-07T02:50:18.329Z,1.2
2019-06-07T02:52:18.776Z,1.1
2019-06-07T02:54:18.432Z,1
2019-06-07T02:58:17.798Z,1
2019-06-07T03:00:41.122Z,1
2019-06-07T03:02:18.273Z,1.1
2019-06-07T03:04:17.861Z,0.7
2019-06-07T03:06:17.430Z,1
2019-06-07T03:08:19.166Z,1.1
2019-06-07T03:10:18.745Z,1
2019-06-07T03:12:18.417Z,1.1
2019-06-07T03:14:18.095Z,1
2019-06-07T03:16:16.792Z,0.6
2019-06-07T03:18:19.492Z,1
2019-06-07T03:20:18.985Z,0.7
2019-06-07T03:22:18.432Z,0.7
2019-06-07T03:24:18.028Z,0.7
2019-06-07T03:26:17.857Z,0.7
2019-06-07T03:28:19.436Z,0.6
2019-06-07T03:32:18.620Z,0.7
2019-06-07T03:34:18.244Z,0.7
2019-06-07T03:36:23.651Z,0.4
2019-06-07T03:38:17.638Z,0.7
2019-06-07T03:40:19.337Z,0.6
2019-06-07T03:42:18.785Z,0.6
2019-06-07T03:44:18.398Z,0.6
2019-06-07T03:46:18.111Z,1.6
2019-06-07T03:48:17.742Z,0.3
2019-06-07T03:50:17.552Z,0.5
2019-06-07T03:52:19.238Z,0.4
2019-06-07T03:54:18.595Z,0.7
2019-06-07T03:56:18.368Z,0.9
2019-06-07T03:58:31.155Z,0.5
2019-06-07T04:00:17.777Z,0.8
2019-06-07T04:02:16.527Z,0.5
2019-06-07T04:04:19.287Z,0.5
2019-06-07T04:06:18.559Z,0.6
2019-06-07T04:08:18.250Z,0.5
2019-06-07T04:10:17.003Z,0.6
2019-06-07T04:12:17.643Z,0.7
2019-06-07T04:14:19.415Z,0.6
2019-06-07T04:16:18.662Z,0.4
2019-06-07T04:18:18.317Z,0.6
2019-06-07T04:20:17.969Z,0.5
2019-06-07T04:22:17.754Z,0.7
2019-06-07T04:24:19.517Z,0.6
2019-06-07T04:26:19.023Z,0.8
2019-06-07T04:28:18.424Z,0.5
2019-06-07T04:30:18.191Z,0.6
2019-06-07T04:32:17.940Z,0.6
2019-06-07T04:34:17.484Z,0.6
2019-06-07T04:36:37.288Z,0.5
2019-06-07T04:38:18.940Z,0.4
2019-06-07T04:40:18.536Z,0.3
2019-06-07T04:42:18.201Z,0.3
2019-06-07T04:44:17.931Z,0.4
2019-06-07T04:46:17.586Z,0.5
2019-06-07T04:48:19.331Z,0.5
2019-06-07T04:50:18.820Z,0.4
2019-06-07T04:52:18.273Z,0.4
2019-06-07T04:54:18.017Z,0.3
2019-06-07T04:56:17.714Z,0.5
2019-06-07T04:58:19.455Z,0.4
2019-06-07T05:00:47.164Z,0.6
2019-06-07T05:02:18.597Z,0.6
2019-06-07T05:04:18.225Z,0.5
2019-06-07T05:06:17.978Z,0.4
2019-06-07T05:08:27.867Z,0.6
2019-06-07T05:10:19.131Z,0.3
2019-06-07T05:12:17.636Z,0.4
2019-06-07T05:14:18.318Z,0.3
2019-06-07T05:16:18.099Z,0.4
2019-06-07T05:18:17.818Z,0.3
2019-06-07T05:20:17.636Z,0.6
2019-06-07T05:22:19.312Z,0.2
2019-06-07T05:24:18.699Z,0.6
2019-06-07T05:26:18.422Z,0.5
2019-06-07T05:28:18.102Z,0.6
2019-06-07T05:30:50.893Z,0.5
2019-06-07T05:32:17.494Z,1.2
2019-06-07T05:34:19.152Z,0.3
2019-06-07T05:36:18.502Z,0.4
2019-06-07T05:38:18.042Z,0.3
2019-06-07T05:40:17.835Z,0.3
2019-06-07T05:42:17.619Z,0.4
2019-06-07T05:44:19.382Z,0.4
2019-06-07T05:46:18.617Z,0.5
2019-06-07T05:48:17.366Z,0.3
2019-06-07T05:50:38.312Z,0.3
2019-06-07T05:52:17.717Z,0.3
2019-06-07T05:54:19.483Z,0.3
2019-06-07T05:56:18.739Z,0.3
2019-06-07T05:58:17.291Z,0.3
2019-06-07T06:00:17.106Z,0.4
2019-06-07T06:02:22.421Z,0.3
2019-06-07T06:04:17.567Z,0.3
2019-06-07T06:06:19.566Z,0.6
2019-06-07T06:08:18.815Z,0.4
2019-06-07T06:10:18.443Z,0.3
2019-06-07T06:12:33.796Z,0.3
2019-06-07T06:14:16.788Z,0.3
2019-06-07T06:16:19.506Z,0.3
2019-06-07T06:18:17.998Z,0.5
2019-06-07T06:20:18.600Z,0.3
2019-06-07T06:22:18.319Z,0.3
2019-06-07T06:24:18.090Z,0.5
2019-06-07T06:26:17.883Z,0.4
2019-06-07T06:28:17.541Z,0.2
2019-06-07T06:30:19.264Z,0.4
2019-06-07T06:34:17.357Z,0.3
2019-06-07T06:36:18.160Z,0.3
2019-06-07T06:38:16.678Z,0.3
2019-06-07T06:40:19.477Z,0.3
2019-06-07T06:42:18.902Z,0.3
2019-06-07T06:44:17.332Z,0.5
2019-06-07T06:46:37.264Z,0.3
2019-06-07T06:48:16.769Z,0.3
2019-06-07T06:50:19.533Z,0.3
2019-06-07T06:52:18.503Z,0.3
2019-06-07T06:54:37.229Z,0.5
2019-06-07T06:56:17.012Z,0.2
2019-06-07T06:58:17.633Z,0.4
2019-06-07T07:00:19.302Z,0.5
2019-06-07T07:02:18.780Z,0.6
2019-06-07T07:04:17.530Z,0.3
2019-06-07T07:06:25.666Z,0.3
2019-06-07T07:08:17.881Z,0.3
2019-06-07T07:10:17.573Z,0.3
2019-06-07T07:12:18.355Z,0.3
2019-06-07T07:14:18.978Z,0.4
2019-06-07T07:16:17.504Z,0.1
2019-06-07T07:18:18.181Z,0.3
2019-06-07T07:20:17.949Z,0.4
2019-06-07T07:22:16.765Z,0.2
2019-06-07T07:24:21.909Z,0.1
2019-06-07T07:26:18.698Z,0.3
2019-06-07T07:28:18.309Z,0.6
2019-06-07T07:30:35.867Z,0.5
2019-06-07T07:32:17.683Z,0.3
2019-06-07T07:34:33.269Z,0.3
2019-06-07T07:36:35.529Z,0.3
2019-06-07T07:38:17.628Z,0.2
2019-06-07T07:42:21.051Z,0.3
2019-06-07T07:44:16.761Z,0.4
2019-06-07T07:46:32.087Z,0.5
2019-06-07T07:48:18.877Z,0.3
2019-06-07T07:50:17.424Z,0.4
2019-06-07T07:52:17.133Z,0.2
2019-06-07T07:54:17.695Z,0.3
2019-06-07T07:56:19.471Z,0.4
2019-06-07T07:58:18.883Z,0.4
2019-06-07T08:00:49.236Z,0.3
2019-06-07T08:02:17.007Z,0.4
2019-06-07T08:04:16.812Z,0.4
2019-06-07T08:06:16.630Z,0.4
2019-06-07T08:08:18.413Z,0.2
2019-06-07T08:10:17.649Z,0.3
2019-06-07T08:12:18.372Z,0.3
2019-06-07T08:14:16.942Z,0.5
2019-06-07T08:16:18.764Z,0.2
2019-06-07T08:18:18.511Z,0.2
2019-06-07T08:20:19.009Z,0.5
2019-06-07T08:22:17.485Z,0.3
2019-06-07T08:24:17.027Z,0.4
2019-06-07T08:26:16.841Z,0.4
2019-06-07T08:28:16.472Z,0.3
2019-06-07T08:32:17.981Z,0.4
2019-06-07T08:34:17.439Z,0.9
2019-06-07T08:36:21.987Z,0.6
2019-06-07T08:38:29.586Z,0.9
2019-06-07T08:40:16.733Z,0.5
2019-06-07T08:42:22.065Z,0.6
2019-06-07T08:44:23.562Z,0.5
2019-06-07T08:46:17.492Z,0.5
2019-06-07T08:48:27.352Z,0.3
2019-06-07T08:50:16.981Z,0.5
2019-06-07T08:52:16.607Z,0.4
2019-06-07T08:54:22.627Z,0.4
2019-06-07T08:56:18.082Z,0.5
2019-06-07T08:58:17.746Z,0.4
2019-06-07T09:00:42.846Z,0.3
2019-06-07T09:02:23.579Z,0.6
2019-06-07T09:04:16.732Z,0.4
2019-06-07T09:06:54.266Z,0.3
2019-06-07T09:08:29.664Z,0.6
2019-06-07T09:10:17.431Z,0.5
2019-06-07T09:12:17.125Z,0.5
2019-06-07T09:14:16.691Z,0.4
2019-06-07T09:16:18.505Z,0.2
2019-06-07T09:18:40.675Z,0.4
2019-06-07T09:20:35.514Z,0.2
2019-06-07T09:22:16.969Z,0.1
2019-06-07T09:24:16.676Z,0.4
2019-06-07T09:26:18.979Z,0.3
2019-06-07T09:28:19.976Z,0.6
2019-06-07T09:30:18.907Z,0.3
2019-06-07T09:32:18.577Z,0.3
2019-06-07T09:34:16.553Z,0.5
2019-06-07T09:36:17.920Z,0.2
2019-06-07T09:38:25.358Z,0.4
2019-06-07T09:40:25.418Z,0.5
2019-06-07T09:42:16.999Z,0.3
2019-06-07T09:44:24.499Z,0.3
2019-06-07T09:46:16.948Z,0.6
2019-06-07T09:49:01.193Z,0.3
2019-06-07T09:50:17.735Z,0.3
2019-06-07T09:52:17.600Z,0.3
2019-06-07T09:54:56.407Z,0.4
2019-06-07T09:56:17.135Z,0.6
2019-06-07T09:58:50.017Z,0.4
2019-06-07T10:00:39.598Z,0.5
2019-06-07T10:02:18.404Z,0.3
2019-06-07T10:04:30.592Z,0.5
2019-06-07T10:06:17.487Z,0.5
2019-06-07T10:09:26.089Z,0.4
2019-06-07T10:12:16.946Z,0.5
2019-06-07T10:14:18.263Z,0.5
2019-06-07T10:16:17.753Z,0.3
2019-06-07T10:18:17.335Z,0.4
2019-06-07T10:20:16.958Z,0.5
2019-06-07T10:22:16.667Z,0.6
2019-06-07T10:24:18.378Z,0.7
2019-06-07T10:26:17.843Z,0.4
2019-06-07T10:28:17.360Z,0.4
2019-06-07T10:30:17.122Z,0.6
2019-06-07T10:32:16.849Z,0.5
2019-06-07T10:34:16.480Z,0.6
2019-06-07T10:36:18.061Z,0.5
2019-06-07T10:38:17.585Z,0.5
2019-06-07T10:40:17.453Z,0.7
2019-06-07T10:42:17.161Z,0.2
2019-06-07T10:44:16.967Z,0.5
2019-06-07T10:46:16.622Z,0.7
2019-06-07T10:48:18.321Z,0.5
2019-06-07T10:50:17.882Z,0.4
2019-06-07T10:52:17.436Z,0.5
2019-06-07T10:54:26.929Z,0.4
2019-06-07T10:56:16.903Z,0.5
2019-06-07T10:58:16.574Z,0.6
2019-06-07T11:00:18.343Z,0.5
2019-06-07T11:02:17.802Z,0.4
2019-06-07T11:04:17.197Z,0.4
2019-06-07T11:06:17.070Z,0.5
2019-06-07T11:08:16.639Z,0.6
2019-06-07T11:10:19.567Z,0.7
2019-06-07T11:12:18.338Z,0.6
2019-06-07T11:14:17.777Z,0.5
2019-06-07T11:16:17.454Z,0.5
2019-06-07T11:18:18.850Z,0.6
2019-06-07T11:20:18.300Z,0.4
2019-06-07T11:22:16.682Z,0.5
2019-06-07T11:24:23.763Z,0.9
2019-06-07T11:26:18.407Z,0.5
2019-06-07T11:28:17.015Z,0.5
2019-06-07T11:30:16.822Z,0.7
2019-06-07T11:32:16.634Z,0.8
2019-06-07T11:34:18.875Z,0.5
2019-06-07T11:36:18.821Z,0.7
2019-06-07T11:38:17.324Z,0.9
2019-06-07T11:40:29.658Z,0.7
2019-06-07T11:42:19.324Z,0.5
2019-06-07T11:44:17.181Z,0.4
2019-06-07T11:46:18.198Z,0.4
2019-06-07T11:48:17.669Z,0.6
2019-06-07T11:50:17.676Z,0.6
2019-06-07T11:52:17.757Z,0.6
2019-06-07T11:54:20.286Z,0.6
2019-06-07T11:56:16.542Z,0.8
2019-06-07T11:58:21.536Z,0.7
2019-06-07T12:00:18.382Z,0.4
2019-06-07T12:02:17.644Z,0.5
2019-06-07T12:04:32.266Z,0.5
2019-06-07T12:06:17.988Z,0.6
2019-06-07T12:08:18.372Z,0.9
2019-06-07T12:10:21.103Z,0.6
2019-06-07T12:12:17.228Z,0.7
2019-06-07T12:14:17.045Z,0.6
2019-06-07T12:16:17.371Z,0.7
2019-06-07T12:18:17.526Z,0.6
2019-06-07T12:20:18.636Z,0.7
2019-06-07T12:22:17.891Z,0.8
2019-06-07T12:24:19.228Z,0.7
2019-06-07T12:26:16.678Z,0.6
2019-06-07T12:28:18.818Z,0.4
2019-06-07T12:30:24.205Z,0.6
2019-06-07T12:32:17.489Z,0.7
2019-06-07T12:34:17.448Z,0.5
2019-06-07T12:36:19.831Z,0.6
2019-06-07T12:38:18.945Z,0.4
2019-06-07T12:40:27.455Z,0.5
2019-06-07T12:42:16.847Z,0.6
2019-06-07T12:44:18.635Z,1
2019-06-07T12:46:22.714Z,0.5
2019-06-07T12:48:20.571Z,0.5
2019-06-07T12:50:17.508Z,0.7
2019-06-07T12:52:19.185Z,0.8
2019-06-07T12:54:17.559Z,0.7
2019-06-07T12:56:17.721Z,0.6
2019-06-07T12:58:25.494Z,0.7
2019-06-07T13:00:18.172Z,0.7
2019-06-07T13:02:19.940Z,0.7
2019-06-07T13:04:16.948Z,0.6
2019-06-07T13:06:17.706Z,0.8
2019-06-07T13:08:19.657Z,0.6
2019-06-07T13:10:18.002Z,0.7
2019-06-07T13:12:17.601Z,0.5
2019-06-07T13:14:17.754Z,1
2019-06-07T13:16:18.332Z,0.4
2019-06-07T13:18:19.011Z,0.5
2019-06-07T13:20:18.059Z,0.7
2019-06-07T13:22:18.435Z,0.6
2019-06-07T13:24:18.900Z,0.6
2019-06-07T13:26:18.557Z,0.6
2019-06-07T13:28:17.545Z,1
2019-06-07T13:30:16.957Z,0.7
2019-06-07T13:32:19.547Z,0.8
2019-06-07T13:34:18.503Z,0.6
2019-06-07T13:36:18.076Z,0.4
2019-06-07T13:38:18.920Z,0.4
2019-06-07T13:40:19.234Z,0.7
2019-06-07T13:42:16.778Z,0.5
2019-06-07T13:44:18.744Z,1
2019-06-07T13:46:18.858Z,0.7
2019-06-07T13:48:17.242Z,0.5
2019-06-07T13:50:17.581Z,0.6
2019-06-07T13:52:16.652Z,0.7
2019-06-07T13:54:18.634Z,0.7
2019-06-07T13:56:17.877Z,0.7
2019-06-07T13:58:18.636Z,0.9
2019-06-07T14:00:18.356Z,0.5
2019-06-07T14:02:16.705Z,0.6
2019-06-07T14:04:18.843Z,0.7
2019-06-07T14:06:18.815Z,0.7
2019-06-07T14:08:17.181Z,0.6
2019-06-07T14:10:16.922Z,0.5
2019-06-07T14:12:16.646Z,0.6
2019-06-07T14:14:20.004Z,0.9
2019-06-07T14:16:17.870Z,0.8
2019-06-07T14:18:17.427Z,0.7
2019-06-07T14:20:17.349Z,0.8
2019-06-07T14:22:16.912Z,0.7
2019-06-07T14:24:16.534Z,0.7
2019-06-07T14:26:17.977Z,0.9
2019-06-07T14:28:17.561Z,1.2
2019-06-07T14:30:17.257Z,0.7
2019-06-07T14:32:16.979Z,0.8
2019-06-07T14:34:16.709Z,0.7
2019-06-07T14:36:16.509Z,0.8
2019-06-07T14:38:18.298Z,1
2019-06-07T14:40:17.958Z,0.6
2019-06-07T14:42:17.476Z,1
2019-06-07T14:44:17.138Z,0.5
2019-06-07T14:46:16.898Z,0.9
2019-06-07T14:48:16.514Z,0.8
2019-06-07T14:50:18.314Z,0.6
2019-06-07T14:52:17.886Z,0.7
2019-06-07T14:54:17.309Z,0.6
2019-06-07T14:56:17.060Z,0.7
2019-06-07T14:58:16.665Z,0.6
2019-06-07T15:00:18.473Z,0.8
2019-06-07T15:02:18.090Z,0.6
2019-06-07T15:04:17.648Z,0.7
2019-06-07T15:06:17.384Z,0.5
2019-06-07T15:08:17.023Z,0.7
2019-06-07T15:10:16.812Z,0.6
2019-06-07T15:12:24.873Z,1
2019-06-07T15:14:17.819Z,0.8
2019-06-07T15:16:17.491Z,0.9
2019-06-07T15:18:17.153Z,0.6
2019-06-07T15:20:16.861Z,0.7
2019-06-07T15:22:16.539Z,0.6
2019-06-07T15:24:18.275Z,0.7
2019-06-07T15:26:17.916Z,0.6
2019-06-07T15:28:17.542Z,0.6
2019-06-07T15:30:17.198Z,0.5
2019-06-07T15:32:16.977Z,1.6
2019-06-07T15:34:16.635Z,0.6
2019-06-07T15:36:18.215Z,0.8
2019-06-07T15:38:17.740Z,0.6
2019-06-07T15:40:17.542Z,0.9
2019-06-07T15:42:17.236Z,0.8
2019-06-07T15:44:16.983Z,0.7
2019-06-07T15:46:16.633Z,0.7
2019-06-07T15:48:18.290Z,0.9
2019-06-07T15:50:17.881Z,0.7
2019-06-07T15:52:17.410Z,0.9
2019-06-07T15:54:16.965Z,0.7
2019-06-07T15:56:16.688Z,0.7
2019-06-07T15:58:18.449Z,0.8
2019-06-07T16:00:18.160Z,0.4
2019-06-07T16:02:17.657Z,1.1
2019-06-07T16:04:17.245Z,0.7
2019-06-07T16:06:19.435Z,0.7
2019-06-07T16:08:16.757Z,0.9
2019-06-07T16:10:16.702Z,0.9
2019-06-07T16:12:18.417Z,1
2019-06-07T16:14:17.991Z,0.4
2019-06-07T16:16:17.514Z,0.6
2019-06-07T16:18:17.198Z,0.9
2019-06-07T16:20:16.808Z,0.9
2019-06-07T16:22:16.528Z,0.6
2019-06-07T16:24:18.270Z,0.6
2019-06-07T16:26:17.665Z,0.7
2019-06-07T16:28:17.294Z,1.1
2019-06-07T16:30:17.207Z,0.6
2019-06-07T16:32:16.721Z,0.7
2019-06-07T16:34:18.536Z,0.7
2019-06-07T16:36:18.208Z,1.3
2019-06-07T16:38:17.741Z,0.8
2019-06-07T16:40:17.537Z,0.9
2019-06-07T16:42:17.189Z,0.7
2019-06-07T16:44:16.985Z,0.9
2019-06-07T16:46:16.727Z,0.8
2019-06-07T16:48:18.299Z,0.5
2019-06-07T16:50:18.040Z,0.5
2019-06-07T16:52:17.492Z,0.8
2019-06-07T16:54:17.107Z,0.9
2019-06-07T16:56:16.843Z,0.7
2019-06-07T16:58:16.485Z,0.8
2019-06-07T17:00:18.259Z,0.7
2019-06-07T17:02:17.776Z,2.1
2019-06-07T17:04:17.493Z,0.9
2019-06-07T17:06:17.321Z,0.9
2019-06-07T17:08:16.993Z,1.2
2019-06-07T17:10:16.766Z,0.8
2019-06-07T17:12:18.573Z,0.9
2019-06-07T17:14:18.058Z,0.7
2019-06-07T17:16:17.549Z,1.3
2019-06-07T17:18:17.230Z,0.7
2019-06-07T17:20:17.059Z,0.8
2019-06-07T17:22:16.909Z,1.3
2019-06-07T17:24:16.665Z,0.9
2019-06-07T17:26:18.509Z,1
2019-06-07T17:28:18.009Z,1
2019-06-07T17:30:17.576Z,0.8
2019-06-07T17:32:17.107Z,1
2019-06-07T17:34:16.843Z,1
2019-06-07T17:36:16.639Z,1.1
2019-06-07T17:38:18.433Z,1.1
2019-06-07T17:40:17.566Z,1.5
2019-06-07T17:42:17.322Z,1.5
2019-06-07T17:44:17.038Z,1.2
2019-06-07T17:46:16.797Z,1
2019-06-07T17:48:18.551Z,1.2
2019-06-07T17:50:18.198Z,1.4
2019-06-07T17:52:17.756Z,1.3
2019-06-07T17:54:17.469Z,1.6
2019-06-07T17:56:17.213Z,1.2
2019-06-07T17:58:16.928Z,1.2
2019-06-07T18:00:33.392Z,1
2019-06-07T18:02:18.541Z,1.3
2019-06-07T18:04:18.015Z,1.1
2019-06-07T18:06:17.604Z,1.3
2019-06-07T18:08:17.373Z,1.3
2019-06-07T18:10:17.039Z,1.4
2019-06-07T18:12:16.670Z,1
2019-06-07T18:14:18.355Z,1.3
2019-06-07T18:16:17.671Z,1.2
2019-06-07T18:18:17.296Z,1.2
2019-06-07T18:20:16.965Z,1.2
2019-06-07T18:22:16.622Z,1.4
2019-06-07T18:24:18.319Z,1.5
2019-06-07T18:26:17.579Z,1.3
2019-06-07T18:28:17.214Z,1.3
2019-06-07T18:30:16.733Z,1.4
2019-06-07T18:32:18.547Z,2
2019-06-07T18:34:18.072Z,2
2019-06-07T18:36:17.687Z,1.3
2019-06-07T18:38:17.342Z,1.3
2019-06-07T18:40:17.137Z,1.7
2019-06-07T18:42:16.840Z,1.8
2019-06-07T18:44:21.317Z,1.6
2019-06-07T18:46:18.111Z,2.1
2019-06-07T18:48:17.553Z,1.8
2019-06-07T18:50:17.456Z,2.1
2019-06-07T18:52:17.127Z,2
2019-06-07T18:54:16.733Z,1.8
2019-06-07T18:56:18.412Z,1.4
2019-06-07T18:58:17.862Z,1.7
2019-06-07T19:00:17.450Z,1.9
2019-06-07T19:02:17.250Z,1.9
2019-06-07T19:04:16.903Z,2.5
2019-06-07T19:06:16.630Z,1.9
2019-06-07T19:08:18.442Z,2.1
2019-06-07T19:10:17.701Z,1.8
2019-06-07T19:12:17.363Z,2.6
2019-06-07T19:14:17.015Z,2.6
2019-06-07T19:16:16.751Z,2.1
2019-06-07T19:18:16.472Z,2.6
2019-06-07T19:20:18.254Z,2.2
2019-06-07T19:22:17.670Z,2.6
2019-06-07T19:24:17.405Z,3.1
2019-06-07T19:26:17.127Z,3.4
2019-06-07T19:28:16.919Z,3.2
2019-06-07T19:30:16.728Z,4.1
2019-06-07T19:32:18.480Z,3
2019-06-07T19:34:17.987Z,3.5
2019-06-07T19:36:17.548Z,4.5
2019-06-07T19:38:17.412Z,4.1
2019-06-07T19:40:16.939Z,4.9
2019-06-07T19:42:16.650Z,3.8
2019-06-07T19:44:18.403Z,3.9
2019-06-07T19:46:17.968Z,3.3
2019-06-07T19:48:17.458Z,4.5
2019-06-07T19:50:17.198Z,3.9
2019-06-07T19:52:16.871Z,4.7
2019-06-07T19:54:16.595Z,5.3
2019-06-07T19:56:18.469Z,4.2
2019-06-07T19:58:17.921Z,4.6
2019-06-07T20:00:17.447Z,4.8
2019-06-07T20:02:17.045Z,5.4
2019-06-07T20:04:16.804Z,5.2
2019-06-07T20:06:16.598Z,4.7
2019-06-07T20:08:18.340Z,4.7
2019-06-07T20:10:17.951Z,4.3
2019-06-07T20:12:17.447Z,5.2
2019-06-07T20:14:17.136Z,5.1
2019-06-07T20:16:16.824Z,4.8
2019-06-07T20:18:16.514Z,4.9
2019-06-07T20:20:18.406Z,5.2
2019-06-07T20:22:17.827Z,4.4
2019-06-07T20:24:26.243Z,4.9
2019-06-07T20:26:17.045Z,4.2
2019-06-07T20:28:16.820Z,5.1
2019-06-07T20:30:16.571Z,5.1
2019-06-07T20:32:18.350Z,5.6
2019-06-07T20:34:17.804Z,5.9
2019-06-07T20:36:17.549Z,5.8
2019-06-07T20:38:17.268Z,5.3
2019-06-07T20:40:24.013Z,5.9
2019-06-07T20:42:16.564Z,7
2019-06-07T20:44:18.254Z,5.9
2019-06-07T20:46:17.832Z,6.2
2019-06-07T20:48:17.245Z,5.8
2019-06-07T20:50:16.980Z,6.1
2019-06-07T20:52:16.762Z,5.6
2019-06-07T20:54:18.487Z,5.9
2019-06-07T20:56:17.500Z,6
2019-06-07T20:58:17.176Z,6.5
2019-06-07T21:00:21.615Z,6.2
2019-06-07T21:02:16.692Z,5.6
2019-06-07T21:04:18.401Z,5.6
2019-06-07T21:06:17.951Z,5.8
2019-06-07T21:08:17.459Z,6.6
2019-06-07T21:10:17.249Z,5.3
2019-06-07T21:12:17.088Z,5.5
2019-06-07T21:14:16.800Z,6
2019-06-07T21:16:18.549Z,5.7
2019-06-07T21:18:19.921Z,6.9
2019-06-07T21:20:17.589Z,6.7
2019-06-07T21:22:17.259Z,6
2019-06-07T21:24:16.856Z,6.7
2019-06-07T21:26:16.561Z,6.1
2019-06-07T21:28:18.175Z,7
2019-06-07T21:30:17.677Z,5.8
2019-06-07T21:32:17.375Z,5.6
2019-06-07T21:34:17.123Z,6.3
2019-06-07T21:36:16.970Z,5.8
2019-06-07T21:38:16.594Z,5.6
2019-06-07T21:40:18.158Z,6.1
2019-06-07T21:42:17.638Z,5.7
2019-06-07T21:44:17.231Z,6.3
2019-06-07T21:46:20.358Z,5.8
2019-06-07T21:48:16.724Z,5.5
2019-06-07T21:50:18.533Z,5
2019-06-07T21:52:18.057Z,6.8
2019-06-07T21:54:17.582Z,5.3
2019-06-07T21:56:17.362Z,5.5
2019-06-07T21:58:16.985Z,5
2019-06-07T22:00:16.737Z,5.3
2019-06-07T22:02:18.533Z,5.2
2019-06-07T22:04:17.555Z,4.8
2019-06-07T22:06:17.257Z,5.7
2019-06-07T22:08:16.879Z,5.8
2019-06-07T22:10:16.667Z,6.6
2019-06-07T22:12:18.474Z,5.3
2019-06-07T22:14:17.972Z,5.7
2019-06-07T22:16:28.078Z,5.7
2019-06-07T22:18:17.113Z,5.7
2019-06-07T22:20:16.792Z,5.8
2019-06-07T22:22:16.518Z,5.5
2019-06-07T22:24:18.287Z,5.7
2019-06-07T22:26:17.550Z,6.2
2019-06-07T22:28:18.408Z,6.5
2019-06-07T22:30:16.867Z,6.1
2019-06-07T22:32:16.486Z,5.6
2019-06-07T22:34:19.177Z,5.9
2019-06-07T22:36:17.854Z,6.2
2019-06-07T22:38:18.441Z,5.4
2019-06-07T22:40:18.605Z,5.4
2019-06-07T22:42:17.097Z,5.4
2019-06-07T22:44:16.727Z,5.5
2019-06-07T22:46:16.434Z,6.3
2019-06-07T22:48:18.214Z,5.3
2019-06-07T22:50:18.498Z,5.9
2019-06-07T22:52:18.410Z,6
2019-06-07T22:54:18.092Z,6.2
2019-06-07T22:56:18.126Z,6.2
2019-06-07T22:58:16.568Z,6
2019-06-07T23:00:20.777Z,6.1
2019-06-07T23:02:18.722Z,4.9
2019-06-07T23:04:17.157Z,5.3
2019-06-07T23:06:16.850Z,6.5
2019-06-07T23:08:16.945Z,6.1
2019-06-07T23:10:19.548Z,5.7
2019-06-07T23:12:17.743Z,6
2019-06-07T23:14:17.518Z,5.8
2019-06-07T23:16:17.747Z,5.5
2019-06-07T23:18:17.652Z,5.1
2019-06-07T23:20:18.493Z,5.8
2019-06-07T23:22:17.936Z,6
2019-06-07T23:24:17.083Z,6.1
2019-06-07T23:26:16.812Z,6
2019-06-07T23:28:18.753Z,5.8
2019-06-07T23:30:18.590Z,5.9
2019-06-07T23:32:16.997Z,6.2
2019-06-07T23:34:16.825Z,5.7
2019-06-07T23:36:17.188Z,6.3
2019-06-07T23:38:19.169Z,5.9
2019-06-07T23:40:17.828Z,6.2
2019-06-07T23:42:17.601Z,5.8
2019-06-07T23:44:17.245Z,5.8
2019-06-07T23:46:17.426Z,6.2
2019-06-07T23:48:17.454Z,6.4
2019-06-07T23:50:19.760Z,6.2
2019-06-07T23:52:17.907Z,6.1
2019-06-07T23:54:17.814Z,6.6
2019-06-07T23:56:18.257Z,5.6
2019-06-07T23:58:18.644Z,7.3
